Hovedside
METAR-TAF:

METAR-TAF

Lufthavner :

Karlstad lufthavn

Karlstad, Sverige

breddegrad: 59-26-41N, lengdegrad: 013-20-15E, høyde over havet: 107 m

Gjeldene værobservasjon

Denne rapporten ble laget for 39 minutter siden, klokken 00:50 UTC
Vind 15 kt fra Sør-sørvest
Temperatur 6°C
Luftfuktighet 93%
Trykk 1015 hPa
Sikt 10 km eller mer

METAR: ESOK 230050Z AUTO 21015KT 9999 BKN006/// OVC009/// 06/05 Q1015

Tid: 02:29 (01:29 UTC)

Varsel

Denne rapporten ble laget for 7 timer og 59 minutter siden, klokken 17:30 UTC
Varsel gyldig fra 22. klokken 18 UTC til 22. klokken 20 UTC
Vind 15 kt fra Sør
Sikt 10 km eller mer
ingen skyer under 1500 m og ingen bygeskyer

TAF: ESOK 221730Z 2218/2220 19015KT CAVOK

Værobservasjoner og værvarsel for over 4000 flyplasser (METAR- og TAF-rapporter).

Tilgjengelige stasjoner er representert av de røde og gule prikkene på kartet.

Hold musepekeren over prikken for å se navnet på stasjonen.

Klikk så for å se værobservasjoner og -varsler.

For å forandre kartet kan du klikke på den grønne knappen med svart kryss for å zoome inn, på den grønne knappen med strek for å zoome ut, eller på de grønne pilene for å se tilstøtende kart.


METAR-TAF: